createdAt,value
2018-10-19T00:00:38.742Z,16.20
2018-10-19T00:03:06.289Z,16.10
2018-10-19T00:05:33.835Z,16.10
2018-10-19T00:08:01.396Z,16.10
2018-10-19T00:10:29.066Z,16.00
2018-10-19T00:12:56.714Z,16.00
2018-10-19T00:15:24.199Z,16.00
2018-10-19T00:17:51.796Z,16.00
2018-10-19T00:20:19.398Z,16.00
2018-10-19T00:22:46.972Z,16.00
2018-10-19T00:25:14.586Z,15.90
2018-10-19T00:27:42.250Z,16.00
2018-10-19T00:30:10.594Z,13.70
2018-10-19T00:32:38.144Z,15.80
2018-10-19T00:35:06.045Z,15.90
2018-10-19T00:37:33.563Z,15.80
2018-10-19T00:40:01.147Z,15.80
2018-10-19T00:42:28.687Z,15.80
2018-10-19T00:44:56.365Z,15.80
2018-10-19T00:47:23.883Z,15.80
2018-10-19T00:49:51.423Z,15.70
2018-10-19T00:52:19.005Z,15.60
2018-10-19T00:54:46.575Z,15.60
2018-10-19T00:57:14.192Z,15.60
2018-10-19T00:59:41.723Z,12.40
2018-10-19T01:02:09.287Z,15.50
2018-10-19T01:04:36.829Z,15.50
2018-10-19T01:07:04.465Z,15.60
2018-10-19T01:09:32.085Z,15.60
2018-10-19T01:11:59.695Z,15.50
2018-10-19T01:14:27.645Z,15.50
2018-10-19T01:16:55.324Z,15.50
2018-10-19T01:19:22.940Z,12.40
2018-10-19T01:21:50.512Z,15.40
2018-10-19T01:24:18.750Z,15.50
2018-10-19T01:26:46.246Z,15.40
2018-10-19T01:29:13.879Z,15.40
2018-10-19T01:31:41.434Z,15.40
2018-10-19T01:34:09.062Z,15.30
2018-10-19T01:36:42.493Z,15.30
2018-10-19T01:39:11.013Z,15.30
2018-10-19T01:41:38.742Z,15.30
2018-10-19T01:44:07.066Z,15.20
2018-10-19T01:46:34.647Z,15.20
2018-10-19T01:49:02.187Z,15.20
2018-10-19T01:51:29.830Z,15.20
2018-10-19T01:53:57.357Z,15.20
2018-10-19T01:56:24.902Z,15.20
2018-10-19T01:58:52.437Z,15.10
2018-10-19T02:01:20.604Z,15.10
2018-10-19T02:03:48.267Z,15.10
2018-10-19T02:06:15.781Z,15.10
2018-10-19T02:08:43.281Z,15.10
2018-10-19T02:11:10.887Z,15.00
2018-10-19T02:13:38.284Z,15.10
2018-10-19T02:16:05.807Z,15.00
2018-10-19T02:18:33.285Z,15.00
2018-10-19T02:21:00.783Z,15.10
2018-10-19T02:23:28.369Z,14.70
2018-10-19T02:25:55.944Z,15.00
2018-10-19T02:28:23.547Z,15.00
2018-10-19T02:30:51.053Z,14.90
2018-10-19T02:33:18.678Z,14.30
2018-10-19T02:35:46.106Z,12.80
2018-10-19T02:38:13.603Z,14.90
2018-10-19T02:40:41.163Z,14.90
2018-10-19T02:43:08.728Z,14.90
2018-10-19T02:45:40.266Z,14.80
2018-10-19T02:48:07.918Z,14.90
2018-10-19T02:50:35.429Z,14.90
2018-10-19T02:53:02.962Z,14.80
2018-10-19T02:55:30.397Z,14.80
2018-10-19T02:57:57.870Z,14.70
2018-10-19T03:00:25.395Z,14.80
2018-10-19T03:02:52.873Z,12.90
2018-10-19T03:05:20.348Z,14.80
2018-10-19T03:07:47.876Z,14.80
2018-10-19T03:10:15.321Z,14.80
2018-10-19T03:12:42.825Z,14.80
2018-10-19T03:15:10.377Z,14.60
2018-10-19T03:17:37.957Z,14.40
2018-10-19T03:20:06.255Z,14.70
2018-10-19T03:22:33.828Z,14.70
2018-10-19T03:25:01.410Z,14.70
2018-10-19T03:27:28.936Z,14.70
2018-10-19T03:29:56.426Z,14.70
2018-10-19T03:32:23.886Z,14.70
2018-10-19T03:34:51.441Z,14.60
2018-10-19T03:37:18.948Z,14.60
2018-10-19T03:39:46.458Z,14.60
2018-10-19T03:42:14.045Z,14.60
2018-10-19T03:44:41.599Z,14.50
2018-10-19T03:47:09.202Z,12.80
2018-10-19T03:49:36.881Z,14.60
2018-10-19T03:52:04.809Z,13.90
2018-10-19T03:54:32.402Z,14.50
2018-10-19T03:57:00.017Z,14.50
2018-10-19T03:59:27.522Z,13.00
2018-10-19T04:01:55.045Z,14.50
2018-10-19T04:04:22.593Z,14.50
2018-10-19T04:06:50.135Z,10.80
2018-10-19T04:09:17.768Z,14.40
2018-10-19T04:11:45.195Z,14.40
2018-10-19T04:14:12.782Z,13.90
2018-10-19T04:16:40.275Z,14.40
2018-10-19T04:19:08.521Z,14.30
2018-10-19T04:21:36.047Z,14.30
2018-10-19T04:24:04.660Z,14.40
2018-10-19T04:26:32.275Z,16.00
2018-10-19T04:28:59.864Z,14.40
2018-10-19T04:31:27.434Z,14.30
2018-10-19T04:33:54.929Z,14.00
2018-10-19T04:36:22.459Z,14.30
2018-10-19T04:38:49.947Z,14.30
2018-10-19T04:41:17.649Z,14.30
2018-10-19T04:43:45.059Z,12.90
2018-10-19T04:46:12.589Z,14.30
2018-10-19T04:48:40.181Z,14.20
2018-10-19T04:51:07.807Z,13.70
2018-10-19T04:53:35.378Z,14.10
2018-10-19T04:56:02.901Z,14.30
2018-10-19T04:58:30.450Z,14.20
2018-10-19T05:00:58.052Z,14.20
2018-10-19T05:03:25.621Z,16.70
2018-10-19T05:05:53.345Z,14.10
2018-10-19T05:08:21.059Z,14.10
2018-10-19T05:10:48.531Z,14.10
2018-10-19T05:13:16.100Z,12.40
2018-10-19T05:15:43.740Z,14.00
2018-10-19T05:18:11.384Z,14.10
2018-10-19T05:20:38.975Z,14.00
2018-10-19T05:23:06.622Z,14.00
2018-10-19T05:25:34.224Z,14.00
2018-10-19T05:28:01.808Z,14.10
2018-10-19T05:30:29.424Z,13.90
2018-10-19T05:32:58.163Z,14.00
2018-10-19T05:35:31.781Z,14.00
2018-10-19T05:38:10.724Z,14.10
2018-10-19T05:40:39.096Z,14.10
2018-10-19T05:43:07.462Z,13.90
2018-10-19T05:45:35.154Z,18.10
2018-10-19T05:48:02.758Z,13.90
2018-10-19T05:50:30.376Z,14.00
2018-10-19T05:52:57.922Z,14.00
2018-10-19T05:55:25.460Z,14.00
2018-10-19T05:57:53.054Z,14.00
2018-10-19T06:00:20.575Z,14.00
2018-10-19T06:02:48.106Z,11.80
2018-10-19T06:05:15.817Z,13.00
2018-10-19T06:07:43.326Z,14.10
2018-10-19T06:10:10.870Z,14.20
2018-10-19T06:12:38.423Z,14.20
2018-10-19T06:15:06.462Z,11.10
2018-10-19T06:17:34.113Z,12.80
2018-10-19T06:20:02.825Z,14.10
2018-10-19T06:22:30.426Z,14.40
2018-10-19T06:24:58.087Z,14.40
2018-10-19T06:27:25.791Z,14.40
2018-10-19T06:29:53.463Z,14.50
2018-10-19T06:32:21.075Z,14.50
2018-10-19T06:34:48.637Z,14.50
2018-10-19T06:37:16.242Z,14.50
2018-10-19T06:39:43.996Z,14.40
2018-10-19T06:42:11.561Z,14.50
2018-10-19T06:44:39.156Z,14.50
2018-10-19T06:47:06.934Z,14.60
2018-10-19T06:49:34.435Z,14.60
2018-10-19T06:52:02.014Z,14.60
2018-10-19T06:54:29.711Z,14.50
2018-10-19T06:56:57.270Z,14.60
2018-10-19T06:59:24.904Z,14.70
2018-10-19T07:01:52.779Z,14.70
2018-10-19T07:04:20.503Z,11.50
2018-10-19T07:06:48.179Z,14.80
2018-10-19T07:09:15.875Z,14.70
2018-10-19T07:11:43.723Z,14.70
2018-10-19T07:14:11.600Z,14.00
2018-10-19T07:16:39.234Z,14.70
2018-10-19T07:19:06.980Z,14.80
2018-10-19T07:21:34.581Z,14.90
2018-10-19T07:24:02.252Z,14.90
2018-10-19T07:26:29.849Z,14.90
2018-10-19T07:28:57.448Z,15.00
2018-10-19T07:31:24.985Z,14.50
2018-10-19T07:33:53.254Z,15.00
2018-10-19T07:36:20.888Z,15.10
2018-10-19T07:38:48.485Z,14.70
2018-10-19T07:41:16.018Z,15.10
2018-10-19T07:43:43.604Z,15.40
2018-10-19T07:46:11.201Z,15.40
2018-10-19T07:48:38.843Z,15.50
2018-10-19T07:51:06.426Z,15.60
2018-10-19T07:53:33.995Z,15.70
2018-10-19T07:56:01.675Z,15.80
2018-10-19T07:58:29.174Z,13.80
2018-10-19T08:00:56.796Z,16.00
2018-10-19T08:03:24.579Z,16.10
2018-10-19T08:05:52.398Z,16.20
2018-10-19T08:08:19.953Z,16.30
2018-10-19T08:10:47.566Z,16.50
2018-10-19T08:13:15.132Z,16.70
2018-10-19T08:15:42.682Z,16.90
2018-10-19T08:18:10.318Z,16.50
2018-10-19T08:20:37.899Z,17.50
2018-10-19T08:23:05.639Z,17.90
2018-10-19T08:25:33.184Z,18.40
2018-10-19T08:28:00.847Z,18.90
2018-10-19T08:30:28.415Z,19.50
2018-10-19T08:32:55.997Z,20.10
2018-10-19T08:35:23.681Z,20.80
2018-10-19T08:37:51.254Z,21.50
2018-10-19T08:40:18.880Z,22.20
2018-10-19T08:42:46.601Z,22.70
2018-10-19T08:45:14.203Z,23.40
2018-10-19T08:47:41.815Z,24.00
2018-10-19T08:50:09.333Z,24.50
2018-10-19T08:52:36.984Z,25.20
2018-10-19T08:55:04.780Z,25.70
2018-10-19T08:57:32.377Z,26.10
2018-10-19T08:59:59.932Z,26.70
2018-10-19T09:02:27.479Z,27.30
2018-10-19T09:04:55.088Z,27.80
2018-10-19T09:07:22.634Z,28.30
2018-10-19T09:09:50.247Z,28.30
2018-10-19T09:12:17.922Z,29.10
2018-10-19T09:14:50.097Z,28.30
2018-10-19T09:17:17.815Z,30.00
2018-10-19T09:19:45.785Z,30.40
2018-10-19T09:22:13.504Z,28.40
2018-10-19T09:24:41.141Z,31.30
2018-10-19T09:27:08.805Z,31.40
2018-10-19T09:29:36.487Z,31.80
2018-10-19T09:32:04.256Z,32.00
2018-10-19T09:34:31.822Z,29.90
2018-10-19T09:36:59.653Z,32.30
2018-10-19T09:39:27.185Z,32.30
2018-10-19T09:41:54.825Z,32.20
2018-10-19T09:44:22.473Z,32.10
2018-10-19T09:46:50.067Z,31.80
2018-10-19T09:49:17.690Z,28.90
2018-10-19T09:51:45.225Z,31.10
2018-10-19T09:54:12.849Z,29.30
2018-10-19T09:56:40.685Z,30.40
2018-10-19T09:59:08.376Z,29.90
2018-10-19T10:01:36.512Z,29.50
2018-10-19T10:04:04.335Z,29.40
2018-10-19T10:06:31.895Z,29.10
2018-10-19T10:08:59.411Z,28.40
2018-10-19T10:11:26.947Z,27.40
2018-10-19T10:13:54.487Z,29.00
2018-10-19T10:16:22.091Z,27.10
2018-10-19T10:18:49.687Z,29.50
2018-10-19T10:21:17.289Z,29.70
2018-10-19T10:23:44.856Z,28.20
2018-10-19T10:26:13.094Z,30.60
2018-10-19T10:28:40.653Z,31.10
2018-10-19T10:31:08.249Z,31.30
2018-10-19T10:33:36.111Z,31.70
2018-10-19T10:36:03.690Z,32.10
2018-10-19T10:38:31.414Z,32.50
2018-10-19T10:40:58.969Z,32.80
2018-10-19T10:43:26.488Z,33.10
2018-10-19T10:45:54.014Z,31.70
2018-10-19T10:48:21.571Z,34.00
2018-10-19T10:50:49.121Z,34.30
2018-10-19T10:53:16.982Z,34.60
2018-10-19T10:55:44.547Z,35.20
2018-10-19T10:58:12.191Z,35.30
2018-10-19T11:00:39.691Z,35.60
2018-10-19T11:03:07.250Z,35.90
2018-10-19T11:05:34.796Z,36.20
2018-10-19T11:08:02.278Z,35.80
2018-10-19T11:10:29.743Z,36.40
2018-10-19T11:12:57.204Z,36.70
2018-10-19T11:15:24.752Z,36.80
2018-10-19T11:17:52.285Z,36.90
2018-10-19T11:20:19.838Z,37.10
2018-10-19T11:22:47.388Z,37.10
2018-10-19T11:25:15.023Z,37.30
2018-10-19T11:27:42.549Z,37.40
2018-10-19T11:30:10.078Z,37.70
2018-10-19T11:32:37.637Z,37.70
2018-10-19T11:35:05.576Z,37.70
2018-10-19T11:37:33.266Z,37.70
2018-10-19T11:40:38.035Z,37.80
2018-10-19T11:43:06.561Z,37.80
2018-10-19T11:45:34.825Z,37.90
2018-10-19T11:48:02.405Z,37.90
2018-10-19T11:50:29.911Z,37.70
2018-10-19T11:52:57.514Z,37.90
2018-10-19T11:55:25.090Z,37.90
2018-10-19T11:57:52.699Z,37.90
2018-10-19T12:00:20.200Z,37.90
2018-10-19T12:02:47.711Z,38.00
2018-10-19T12:05:15.299Z,37.90
2018-10-19T12:07:42.805Z,37.60
2018-10-19T12:10:11.479Z,37.20
2018-10-19T12:12:39.458Z,36.80
2018-10-19T12:15:08.302Z,36.30
2018-10-19T12:17:35.876Z,35.80
2018-10-19T12:20:03.697Z,35.00
2018-10-19T12:22:31.217Z,34.70
2018-10-19T12:24:58.817Z,34.20
2018-10-19T12:27:26.411Z,33.60
2018-10-19T12:29:53.986Z,33.10
2018-10-19T12:32:21.541Z,32.50
2018-10-19T12:34:49.112Z,32.00
2018-10-19T12:37:16.766Z,31.60
2018-10-19T12:39:44.271Z,31.40
2018-10-19T12:42:11.775Z,31.10
2018-10-19T12:44:39.328Z,30.90
2018-10-19T12:47:45.338Z,30.70
2018-10-19T12:50:12.903Z,30.60
2018-10-19T12:52:40.430Z,28.20
2018-10-19T12:55:08.542Z,30.70
2018-10-19T12:57:36.209Z,30.80
2018-10-19T13:00:04.814Z,30.90
2018-10-19T13:02:32.431Z,31.10
2018-10-19T13:04:59.959Z,30.20
2018-10-19T13:07:31.703Z,31.70
2018-10-19T13:09:59.222Z,32.00
2018-10-19T13:12:26.753Z,32.00
2018-10-19T13:14:54.342Z,32.40
2018-10-19T13:17:21.855Z,32.60
2018-10-19T13:19:49.437Z,32.90
2018-10-19T13:22:16.971Z,32.80
2018-10-19T13:24:44.496Z,33.20
2018-10-19T13:27:12.141Z,32.50
2018-10-19T13:29:39.696Z,33.30
2018-10-19T13:32:07.233Z,33.50
2018-10-19T13:34:34.843Z,33.50
2018-10-19T13:37:08.989Z,33.60
2018-10-19T13:39:36.546Z,33.60
2018-10-19T13:42:04.428Z,33.60
2018-10-19T13:44:32.022Z,33.60
2018-10-19T13:46:59.642Z,33.60
2018-10-19T13:49:27.118Z,31.60
2018-10-19T13:51:54.778Z,33.50
2018-10-19T13:54:22.298Z,33.50
2018-10-19T13:56:49.826Z,34.00
2018-10-19T13:59:17.403Z,33.40
2018-10-19T14:01:44.940Z,33.40
2018-10-19T14:04:12.478Z,33.30
2018-10-19T14:06:39.982Z,31.40
2018-10-19T14:09:08.985Z,33.10
2018-10-19T14:11:36.566Z,32.90
2018-10-19T14:14:04.540Z,32.60
2018-10-19T14:16:32.034Z,32.30
2018-10-19T14:18:59.610Z,31.90
2018-10-19T14:21:27.084Z,31.60
2018-10-19T14:23:54.613Z,31.20
2018-10-19T14:26:22.174Z,30.70
2018-10-19T14:28:49.700Z,30.30
2018-10-19T14:31:17.219Z,29.80
2018-10-19T14:33:44.953Z,29.40
2018-10-19T14:36:12.356Z,29.00
2018-10-19T14:38:39.895Z,28.60
2018-10-19T14:41:07.598Z,28.20
2018-10-19T14:43:35.085Z,27.80
2018-10-19T14:46:02.587Z,23.90
2018-10-19T14:48:30.103Z,27.20
2018-10-19T14:50:57.606Z,26.80
2018-10-19T14:53:25.122Z,26.50
2018-10-19T14:55:52.643Z,26.30
2018-10-19T14:58:20.216Z,26.10
2018-10-19T15:00:47.846Z,25.90
2018-10-19T15:03:15.468Z,25.60
2018-10-19T15:05:42.881Z,25.40
2018-10-19T15:08:10.445Z,25.30
2018-10-19T15:10:38.359Z,25.10
2018-10-19T15:13:05.647Z,24.90
2018-10-19T15:15:33.206Z,24.80
2018-10-19T15:18:00.784Z,24.60
2018-10-19T15:20:28.370Z,24.50
2018-10-19T15:22:55.975Z,22.80
2018-10-19T15:25:23.609Z,24.20
2018-10-19T15:27:51.284Z,21.50
2018-10-19T15:30:19.510Z,24.10
2018-10-19T15:32:47.432Z,23.90
2018-10-19T15:35:14.990Z,23.70
2018-10-19T15:37:42.809Z,23.70
2018-10-19T15:40:10.857Z,23.40
2018-10-19T15:42:38.736Z,23.30
2018-10-19T15:45:08.738Z,23.40
2018-10-19T15:47:36.431Z,23.20
2018-10-19T15:50:04.432Z,23.10
2018-10-19T15:52:32.051Z,21.30
2018-10-19T15:54:59.621Z,22.90
2018-10-19T15:57:27.348Z,22.70
2018-10-19T15:59:54.902Z,22.60
2018-10-19T16:02:22.458Z,22.60
2018-10-19T16:04:50.613Z,22.50
2018-10-19T16:07:18.790Z,22.40
2018-10-19T16:09:46.800Z,22.20
2018-10-19T16:12:14.595Z,19.00
2018-10-19T16:14:42.354Z,22.10
2018-10-19T16:17:10.288Z,21.50
2018-10-19T16:19:37.880Z,21.90
2018-10-19T16:22:05.679Z,21.80
2018-10-19T16:24:33.440Z,21.70
2018-10-19T16:27:01.215Z,21.70
2018-10-19T16:29:28.914Z,21.60
2018-10-19T16:31:56.514Z,21.50
2018-10-19T16:34:24.168Z,21.10
2018-10-19T16:36:51.794Z,21.30
2018-10-19T16:39:19.550Z,21.20
2018-10-19T16:41:47.206Z,21.00
2018-10-19T16:44:14.863Z,21.00
2018-10-19T16:46:42.539Z,18.50
2018-10-19T16:49:10.256Z,20.80
2018-10-19T16:51:37.858Z,19.70
2018-10-19T16:54:05.462Z,20.70
2018-10-19T16:56:33.037Z,20.80
2018-10-19T16:59:00.616Z,20.60
2018-10-19T17:01:28.200Z,20.50
2018-10-19T17:03:55.829Z,20.50
2018-10-19T17:06:23.532Z,20.40
2018-10-19T17:08:51.123Z,20.30
2018-10-19T17:11:18.745Z,20.30
2018-10-19T17:13:46.318Z,20.20
2018-10-19T17:16:13.920Z,20.10
2018-10-19T17:18:41.512Z,20.00
2018-10-19T17:21:09.208Z,17.40
2018-10-19T17:23:36.692Z,20.00
2018-10-19T17:26:05.123Z,19.90
2018-10-19T17:28:32.729Z,16.60
2018-10-19T17:31:00.470Z,21.50
2018-10-19T17:33:28.095Z,19.80
2018-10-19T17:35:55.749Z,19.20
2018-10-19T17:38:23.370Z,19.20
2018-10-19T17:40:51.035Z,19.50
2018-10-19T17:43:18.744Z,19.50
2018-10-19T17:45:46.279Z,16.30
2018-10-19T17:48:14.031Z,17.90
2018-10-19T17:50:41.594Z,19.50
2018-10-19T17:53:09.246Z,16.70
2018-10-19T17:55:36.766Z,17.20
2018-10-19T17:58:04.370Z,17.90
2018-10-19T18:03:33.269Z,19.50
2018-10-19T18:06:06.493Z,19.20
2018-10-19T18:08:34.853Z,18.10
2018-10-19T18:11:04.643Z,21.20
2018-10-19T18:13:34.398Z,19.30
2018-10-19T18:16:02.377Z,19.30
2018-10-19T18:18:31.061Z,19.20
2018-10-19T18:21:00.789Z,19.10
2018-10-19T18:23:28.982Z,19.10
2018-10-19T18:25:56.631Z,19.20
2018-10-19T18:28:24.305Z,19.00
2018-10-19T18:30:51.936Z,19.10
2018-10-19T18:33:19.649Z,18.90
2018-10-19T18:35:47.371Z,18.90
2018-10-19T18:38:15.066Z,19.00
2018-10-19T18:40:42.670Z,18.90
2018-10-19T18:43:10.190Z,18.80
2018-10-19T18:45:37.920Z,18.90
2018-10-19T18:48:05.696Z,18.80
2018-10-19T18:50:33.568Z,18.80
2018-10-19T18:53:01.476Z,18.10
2018-10-19T18:55:29.149Z,18.70
2018-10-19T18:57:56.983Z,18.60
2018-10-19T19:00:24.740Z,15.10
2018-10-19T19:02:52.613Z,17.30
2018-10-19T19:05:20.563Z,18.40
2018-10-19T19:07:48.318Z,15.60
2018-10-19T19:10:16.247Z,18.40
2018-10-19T19:12:44.096Z,17.10
2018-10-19T19:15:12.128Z,18.30
2018-10-19T19:17:39.810Z,18.30
2018-10-19T19:20:13.640Z,17.30
2018-10-19T19:22:41.991Z,18.20
2018-10-19T19:25:15.120Z,18.30
2018-10-19T19:27:42.748Z,18.10
2018-10-19T19:30:10.340Z,18.20
2018-10-19T19:32:42.489Z,18.10
2018-10-19T19:35:10.141Z,16.60
2018-10-19T19:37:37.674Z,17.00
2018-10-19T19:40:05.504Z,18.00
2018-10-19T19:42:38.632Z,18.00
2018-10-19T19:45:06.311Z,17.40
2018-10-19T19:47:39.496Z,17.90
2018-10-19T19:50:07.098Z,17.90
2018-10-19T19:52:34.747Z,17.80
2018-10-19T19:55:02.304Z,17.80
2018-10-19T19:57:29.890Z,17.80
2018-10-19T19:59:57.509Z,17.70
2018-10-19T20:02:25.108Z,17.70
2018-10-19T20:04:52.784Z,17.70
2018-10-19T20:07:20.352Z,17.60
2018-10-19T20:09:47.900Z,17.60
2018-10-19T20:12:15.523Z,15.80
2018-10-19T20:14:43.101Z,17.50
2018-10-19T20:17:10.830Z,18.20
2018-10-19T20:19:38.444Z,15.70
2018-10-19T20:22:06.016Z,17.30
2018-10-19T20:24:33.700Z,17.30
2018-10-19T20:27:01.214Z,17.40
2018-10-19T20:29:28.768Z,17.30
2018-10-19T20:31:56.347Z,18.80
2018-10-19T20:34:23.875Z,17.30
2018-10-19T20:36:51.397Z,17.30
2018-10-19T20:39:18.941Z,17.20
2018-10-19T20:41:46.520Z,16.60
2018-10-19T20:44:14.208Z,17.20
2018-10-19T20:46:41.832Z,17.10
2018-10-19T20:49:09.369Z,17.10
2018-10-19T20:51:37.066Z,14.90
2018-10-19T20:54:05.626Z,14.70
2018-10-19T20:56:33.149Z,17.00
2018-10-19T20:59:00.805Z,17.00
2018-10-19T21:01:28.296Z,16.90
2018-10-19T21:03:55.848Z,16.90
2018-10-19T21:06:23.431Z,16.90
2018-10-19T21:08:51.004Z,16.80
2018-10-19T21:11:18.477Z,15.70
2018-10-19T21:13:46.005Z,16.80
2018-10-19T21:16:13.500Z,16.90
2018-10-19T21:18:41.048Z,16.70
2018-10-19T21:21:08.583Z,16.70
2018-10-19T21:23:36.077Z,16.70
2018-10-19T21:26:03.709Z,16.40
2018-10-19T21:28:31.196Z,16.70
2018-10-19T21:30:58.741Z,19.80
2018-10-19T21:33:26.336Z,16.60
2018-10-19T21:35:53.862Z,16.60
2018-10-19T21:38:21.375Z,16.60
2018-10-19T21:40:48.875Z,16.50
2018-10-19T21:43:16.357Z,16.50
2018-10-19T21:45:43.836Z,16.20
2018-10-19T21:48:11.369Z,16.50
2018-10-19T21:50:38.871Z,15.90
2018-10-19T21:53:06.466Z,16.50
2018-10-19T21:55:33.991Z,16.40
2018-10-19T21:58:01.620Z,16.40
2018-10-19T22:00:29.220Z,16.40
2018-10-19T22:02:56.727Z,14.60
2018-10-19T22:05:24.277Z,16.40
2018-10-19T22:07:51.968Z,16.50
2018-10-19T22:10:19.519Z,15.90
2018-10-19T22:12:47.056Z,16.50
2018-10-19T22:15:14.636Z,16.40
2018-10-19T22:17:42.214Z,16.40
2018-10-19T22:20:11.272Z,16.40
2018-10-19T22:22:38.852Z,16.40
2018-10-19T22:25:06.446Z,16.30
2018-10-19T22:27:33.929Z,16.30
2018-10-19T22:30:01.510Z,16.30
2018-10-19T22:32:29.093Z,16.30
2018-10-19T22:34:56.666Z,16.20
2018-10-19T22:37:24.157Z,16.20
2018-10-19T22:39:51.668Z,16.20
2018-10-19T22:42:19.176Z,16.10
2018-10-19T22:44:46.826Z,15.40
2018-10-19T22:47:14.406Z,16.10
2018-10-19T22:49:41.887Z,16.10
2018-10-19T22:52:09.448Z,14.90
2018-10-19T22:54:36.982Z,16.00
2018-10-19T22:57:04.584Z,16.00
2018-10-19T22:59:32.069Z,16.00
2018-10-19T23:01:59.668Z,16.00
2018-10-19T23:04:27.180Z,15.90
2018-10-19T23:06:54.730Z,16.00
2018-10-19T23:09:22.238Z,15.90
2018-10-19T23:11:49.801Z,15.90
2018-10-19T23:14:17.325Z,14.10
2018-10-19T23:16:44.863Z,15.90
2018-10-19T23:19:12.497Z,15.90
2018-10-19T23:21:40.035Z,15.90
2018-10-19T23:24:08.052Z,15.90
2018-10-19T23:26:35.657Z,15.90
2018-10-19T23:29:03.817Z,15.90
2018-10-19T23:31:31.419Z,15.90
2018-10-19T23:33:58.801Z,15.90
2018-10-19T23:36:26.307Z,15.70
2018-10-19T23:38:53.805Z,15.90
2018-10-19T23:41:21.346Z,16.00
2018-10-19T23:43:48.892Z,16.00
2018-10-19T23:46:16.426Z,16.00
2018-10-19T23:48:44.005Z,16.00
2018-10-19T23:51:11.571Z,17.10
2018-10-19T23:53:39.154Z,16.00
2018-10-19T23:56:06.640Z,16.00
2018-10-19T23:58:34.193Z,15.90
